Weather at Asheville Regional Airport

Public forecast

Using degrees Fahrenheit for public forecast. Weather courtesy of forecast.io.

Current aviation weather report (METAR) for Asheville Regional Airport

2024/05/29 23:54 (retrieved 31 minutes ago)

KAVL 292354Z 34012KT 10SM CLR 22/08 A3008 RMK AO2 SLP165 T02170083 10256 20217 53006

Closest aviation forecast (TAF) to Asheville Regional Airport

Closest forecast is Dobbins Air Reserve Base, 133.6 nm (247.4 km) SW.

2024/05/29 21:09 (retrieved 3 hours ago)

TAF KMGE 292104Z 2921/3103 30012G18KT 9999 FEW070 BKN200 BKN250 QNH3005INS BECMG 2923/2924 32007KT 9999 SCT250 QNH3007INS BECMG 3015/3016 32009KT 9999 SCT035 SCT150 SCT200 QNH3012INS BECMG 3020/3021 32005KT 9999 SKC QNH3014INS TX29/3020Z TN14/3012Z LAST NO AMDS AFT 3003 NEXT 3011